METAR AND TAF INFORMATION
METAR FOR ESSB
ADDS - METARS form results

(0004 UTC 19 March 2019)
Data provider http://aviationweather.gov/metar/data/
 
METAR text: ESSB 182350Z AUTO 31011KT 9999 OVC012/// M00/M01 Q1005
Conditions at: ESSB (STOCKHOLM/BROMMA, SE) observed 2350 UTC 18 March 2019
Temperature: 0.0°C (32°F)
Dewpoint: -1.0°C (30°F) [RH = 93%]
Pressure (altimeter): 29.68 inches Hg (1005.0 mb)
Winds: from the NW (310 degrees) at 13 MPH (11 knots; 5.7 m/s)
Visibility: 6 or more miles (10+ km)
Ceiling: 1200 feet AGL
Clouds: overcast cloud deck at 1200 feet AGL
Weather: no significant weather observed at this time

METAR text: ESSB 182320Z AUTO 30010KT 9999 -SN BKN009/// OVC019/// M00/M01 Q1004 RESG
Conditions at: ESSB (STOCKHOLM/BROMMA, SE) observed 2320 UTC 18 March 2019
Temperature: 0.0°C (32°F)
Dewpoint: -1.0°C (30°F) [RH = 93%]
Pressure (altimeter): 29.65 inches Hg (1004.0 mb)
Winds: from the WNW (300 degrees) at 12 MPH (10 knots; 5.1 m/s)
Visibility: 6 or more miles (10+ km)
Ceiling: 900 feet AGL
Clouds: broken clouds at 900 feet AGL
overcast cloud deck at 1900 feet AGL
Weather: -SN  (light snow)

Forecast for: ESSB (STOCKHOLM/BROMMA, SE)
Text: TAF ESSB 181730Z 1818/1821 33008KT 2500 -SN VV008
Forecast period: 1800 to 2100 UTC 18 March 2019
Forecast type: FROM: standard forecast or significant change
Winds: from the NNW (330 degrees) at 9 MPH (8 knots; 4.1 m/s)
Visibility: 1.55 miles (2.49 km)
Ceiling: indefinite ceiling with vertical visibility of 800 feet AGL
Clouds: obscured sky
Weather: -SN  (light snow)
Text: TEMPO 1818/1821 6000 BKN015
Forecast period: 1800 to 2100 UTC 18 March 2019
Forecast type: TEMPORARY: The following changes expected for less than half the time period
Visibility: 4 miles (6 km)
Ceiling: 1500 feet AGL
Clouds: broken clouds at 1500 feet AGL
Weather: no significant weather forecast for this period

AIRPORT MAP

RUNWAY INFORMATION
Runway 12 Runway length 5472 ft Runway width 148 ft
Runway elevation 46 ft Runway displaced threshold 0 ft Runway heading 125
Runway 30 Runway length 5472 ft Runway width 148 ft
Runway elevation 42 ft Runway displaced threshold 0 ft Runway heading 305

AIRPORT FREQUENCIES
Type AFIS Name AFIS Frequency 119.4 MHZ
Type APP Name APP Frequency 120.15 MHZ
Type ATIS Name ATIS Frequency 122.45 MHZ
Type GND Name GND Frequency 121.6 MHZ
Type TWR Name TWR Frequency 118.1 MHZ

AIRPORT NEAR NAVIGATION AIDS
Type NDB Name Nacka Frequency 335 KHZ
Type NDB Name Bromma Frequency 394 KHZ
Type NDB Name Bromma Frequency 322 KHZ